createdAt,value
2022-08-22T00:01:18.725Z,101801.50
2022-08-22T00:02:48.679Z,101802.84
2022-08-22T00:03:15.675Z,101809.38
2022-08-22T00:04:00.103Z,101792.66
2022-08-22T00:06:40.173Z,101798.00
2022-08-22T00:09:29.894Z,101796.22
2022-08-22T00:12:16.050Z,101793.56
2022-08-22T00:14:52.810Z,101799.72
2022-08-22T00:17:38.737Z,101794.41
2022-08-22T00:20:16.012Z,101797.97
2022-08-22T00:22:51.848Z,101798.00
2022-08-22T00:25:53.022Z,101791.78
2022-08-22T00:28:35.646Z,101792.66
2022-08-22T00:31:21.174Z,101793.53
2022-08-22T00:33:55.823Z,101790.00
2022-08-22T00:36:31.886Z,101795.31
2022-08-22T00:39:12.186Z,101799.72
2022-08-22T00:42:05.428Z,101802.41
2022-08-22T00:45:13.098Z,101790.88
2022-08-22T00:48:08.649Z,101790.88
2022-08-22T00:51:12.350Z,101790.88
2022-08-22T00:53:56.109Z,101799.72
2022-08-22T00:56:40.764Z,101790.00
2022-08-22T00:59:50.003Z,101790.00
2022-08-22T01:02:40.871Z,101795.31
2022-08-22T01:05:25.417Z,101794.41
2022-08-22T01:08:14.606Z,101788.22
2022-08-22T01:11:01.939Z,101785.59
2022-08-22T01:14:17.507Z,101782.94
2022-08-22T01:17:05.997Z,101779.41
2022-08-22T01:20:26.874Z,101794.44
2022-08-22T01:23:28.803Z,101795.31
2022-08-22T01:26:37.540Z,101786.47
2022-08-22T01:29:38.938Z,101792.66
2022-08-22T01:32:39.147Z,101793.53
2022-08-22T01:35:46.631Z,101790.00
2022-08-22T01:38:53.892Z,101800.63
2022-08-22T01:41:43.370Z,101799.72
2022-08-22T01:44:41.404Z,101805.03
2022-08-22T01:47:16.347Z,101806.81
2022-08-22T01:49:50.132Z,101809.47
2022-08-22T01:52:39.897Z,101809.47
2022-08-22T01:55:13.695Z,101805.03
2022-08-22T01:57:56.305Z,101805.91
2022-08-22T02:00:35.141Z,101804.16
2022-08-22T02:03:20.637Z,101803.25
2022-08-22T02:05:57.505Z,101797.06
2022-08-22T02:08:41.741Z,101799.72
2022-08-22T02:11:14.379Z,101798.84
2022-08-22T02:14:04.139Z,101798.84
2022-08-22T02:16:43.507Z,101793.53
2022-08-22T02:19:26.906Z,101800.59
2022-08-22T02:22:01.017Z,101798.84
2022-08-22T02:24:50.652Z,101795.31
2022-08-22T02:27:35.483Z,101787.34
2022-08-22T02:30:13.187Z,101786.47
2022-08-22T02:32:55.138Z,101784.69
2022-08-22T02:35:35.729Z,101781.16
2022-08-22T02:38:16.892Z,101787.34
2022-08-22T02:41:04.652Z,101790.00
2022-08-22T02:43:42.845Z,101796.16
2022-08-22T02:46:25.670Z,101796.16
2022-08-22T02:49:07.618Z,101793.53
2022-08-22T02:51:52.025Z,101788.22
2022-08-22T02:54:28.430Z,101786.44
2022-08-22T02:57:14.183Z,101785.56
2022-08-22T03:00:25.032Z,101780.25
2022-08-22T03:03:07.595Z,101773.19
2022-08-22T03:05:52.651Z,101774.06
2022-08-22T03:08:29.317Z,101775.84
2022-08-22T03:11:18.906Z,101770.53
2022-08-22T03:14:07.586Z,101764.34
2022-08-22T03:16:47.477Z,101759.94
2022-08-22T03:19:22.990Z,101752.88
2022-08-22T03:22:08.775Z,101758.16
2022-08-22T03:24:50.236Z,101747.56
2022-08-22T03:27:32.908Z,101741.38
2022-08-22T03:30:13.142Z,101741.38
2022-08-22T03:33:15.614Z,101740.47
2022-08-22T03:36:04.619Z,101736.06
2022-08-22T03:38:46.730Z,101735.16
2022-08-22T03:41:35.674Z,101744.88
2022-08-22T03:44:39.950Z,101738.66
2022-08-22T03:47:41.152Z,101743.94
2022-08-22T03:50:36.557Z,101743.94
2022-08-22T03:53:49.516Z,101743.06
2022-08-22T03:57:01.011Z,101740.41
2022-08-22T04:00:10.485Z,101743.91
2022-08-22T04:03:25.694Z,101744.78
2022-08-22T04:06:29.118Z,101749.19
2022-08-22T04:09:32.519Z,101753.56
2022-08-22T04:12:49.952Z,101753.56
2022-08-22T04:16:07.119Z,101756.19
2022-08-22T04:18:50.550Z,101756.16
2022-08-22T04:21:50.737Z,101758.81
2022-08-22T04:24:40.695Z,101763.19
2022-08-22T04:27:19.163Z,101761.41
2022-08-22T04:29:54.948Z,101757.88
2022-08-22T04:32:36.623Z,101770.19
2022-08-22T04:35:14.156Z,101777.25
2022-08-22T04:37:54.651Z,101764.84
2022-08-22T04:40:30.013Z,101768.38
2022-08-22T04:43:06.338Z,101768.34
2022-08-22T04:45:40.502Z,101766.59
2022-08-22T04:48:16.923Z,101769.25
2022-08-22T04:50:53.027Z,101770.13
2022-08-22T04:53:51.636Z,101769.25
2022-08-22T04:56:30.709Z,101782.47
2022-08-22T04:59:05.725Z,101785.13
2022-08-22T05:01:43.172Z,101781.59
2022-08-22T05:04:16.658Z,101784.25
2022-08-22T05:06:53.766Z,101786.03
2022-08-22T05:09:34.757Z,101781.66
2022-08-22T05:12:14.543Z,101788.72
2022-08-22T05:14:47.868Z,101781.66
2022-08-22T05:17:22.470Z,101791.38
2022-08-22T05:19:56.617Z,101795.78
2022-08-22T05:22:36.833Z,101797.56
2022-08-22T05:25:13.152Z,101798.44
2022-08-22T05:27:47.973Z,101791.38
2022-08-22T05:30:24.743Z,101797.56
2022-08-22T05:33:01.182Z,101796.69
2022-08-22T05:35:48.597Z,101794.91
2022-08-22T05:38:24.086Z,101794.91
2022-08-22T05:41:00.157Z,101797.56
2022-08-22T05:43:31.547Z,101800.22
2022-08-22T05:46:04.258Z,101789.66
2022-08-22T05:48:43.559Z,101793.22
2022-08-22T05:51:21.638Z,101790.63
2022-08-22T05:53:55.633Z,101792.44
2022-08-22T05:57:12.166Z,101793.41
2022-08-22T06:03:05.013Z,101807.63
2022-08-22T06:05:41.252Z,101806.78
2022-08-22T06:08:20.384Z,101805.91
2022-08-22T06:10:56.282Z,101813.88
2022-08-22T06:13:35.379Z,101811.22
2022-08-22T06:16:12.752Z,101812.94
2022-08-22T06:18:46.002Z,101816.44
2022-08-22T06:21:23.373Z,101815.53
2022-08-22T06:23:57.576Z,101809.25
2022-08-22T06:26:31.510Z,101810.13
2022-08-22T06:29:05.669Z,101809.25
2022-08-22T06:31:45.350Z,101804.84
2022-08-22T06:34:20.155Z,101807.59
2022-08-22T06:36:53.147Z,101811.13
2022-08-22T06:39:29.097Z,101810.25
2022-08-22T06:42:06.312Z,101813.81
2022-08-22T06:44:42.971Z,101805.88
2022-08-22T06:47:17.965Z,101819.03
2022-08-22T06:49:48.759Z,101801.13
2022-08-22T06:52:23.632Z,101805.44
2022-08-22T06:55:00.915Z,101800.00
2022-08-22T06:57:36.192Z,101802.41
2022-08-22T07:00:13.307Z,101786.50
2022-08-22T07:02:46.807Z,101794.16
2022-08-22T07:05:20.113Z,101780.44
2022-08-22T07:07:50.257Z,101776.75
2022-08-22T07:10:23.611Z,101778.22
2022-08-22T07:13:10.011Z,101771.91
2022-08-22T07:15:46.286Z,101783.41
2022-08-22T07:18:20.891Z,101777.88
2022-08-22T07:20:55.060Z,101776.00
2022-08-22T07:23:36.283Z,101768.72
2022-08-22T07:26:28.098Z,101767.00
2022-08-22T07:29:08.999Z,101769.53
2022-08-22T07:31:52.005Z,101763.16
2022-08-22T07:34:38.714Z,101765.13
2022-08-22T07:37:15.768Z,101757.75
2022-08-22T07:40:06.655Z,101764.63
2022-08-22T07:42:47.682Z,101760.72
2022-08-22T07:45:20.788Z,101764.34
2022-08-22T07:48:11.491Z,101755.94
2022-08-22T07:50:51.042Z,101762.94
2022-08-22T07:53:26.820Z,101768.91
2022-08-22T07:55:57.946Z,101766.59
2022-08-22T07:58:39.039Z,101770.72
2022-08-22T08:01:12.689Z,101763.78
2022-08-22T08:03:50.516Z,101763.91
2022-08-22T08:06:20.516Z,101758.41
2022-08-22T08:08:53.327Z,101764.47
2022-08-22T08:11:26.221Z,101763.91
2022-08-22T08:14:01.033Z,101764.41
2022-08-22T08:16:45.713Z,101764.19
2022-08-22T08:19:21.798Z,101756.56
2022-08-22T08:21:55.194Z,101756.22
2022-08-22T08:24:28.822Z,101753.78
2022-08-22T08:27:23.568Z,101746.41
2022-08-22T08:29:59.047Z,101759.84
2022-08-22T08:32:36.230Z,101756.59
2022-08-22T08:35:13.712Z,101755.66
2022-08-22T08:37:48.673Z,101760.13
2022-08-22T08:40:50.779Z,101751.50
2022-08-22T08:43:35.852Z,101753.75
2022-08-22T08:46:30.755Z,101751.69
2022-08-22T08:49:30.936Z,101746.38
2022-08-22T08:52:35.783Z,101740.06
2022-08-22T08:55:22.753Z,101747.59
2022-08-22T08:58:27.584Z,101738.53
2022-08-22T09:01:14.346Z,101737.94
2022-08-22T09:04:16.443Z,101744.63
2022-08-22T09:07:08.160Z,101743.13
2022-08-22T09:10:04.965Z,101748.72
2022-08-22T09:13:00.250Z,101736.13
2022-08-22T09:16:04.859Z,101735.06
2022-08-22T09:19:05.113Z,101742.66
2022-08-22T09:25:38.496Z,101739.94
2022-08-22T09:28:19.720Z,101733.03
2022-08-22T09:31:47.715Z,101733.84
2022-08-22T09:34:25.703Z,101726.28
2022-08-22T09:37:16.788Z,101725.47
2022-08-22T09:39:57.261Z,101719.81
2022-08-22T09:40:15.554Z,101731.25
2022-08-22T09:42:39.261Z,101723.16
2022-08-22T09:45:50.380Z,101717.56
2022-08-22T09:48:55.366Z,101711.22
2022-08-22T09:51:38.646Z,101712.16
2022-08-22T09:54:31.360Z,101709.94
2022-08-22T09:57:22.904Z,101709.81
2022-08-22T10:00:26.968Z,101702.91
2022-08-22T10:03:08.295Z,101701.06
2022-08-22T10:05:49.786Z,101696.44
2022-08-22T10:08:39.959Z,101693.44
2022-08-22T10:11:21.892Z,101695.56
2022-08-22T10:14:05.834Z,101697.44
2022-08-22T10:17:07.240Z,101692.38
2022-08-22T10:19:45.690Z,101703.56
2022-08-22T10:22:39.368Z,101698.00
2022-08-22T10:25:22.576Z,101692.06
2022-08-22T10:27:59.783Z,101695.78
2022-08-22T10:30:45.742Z,101688.41
2022-08-22T10:33:29.211Z,101703.28
2022-08-22T10:36:05.490Z,101693.69
2022-08-22T10:38:44.052Z,101684.03
2022-08-22T10:41:28.783Z,101693.44
2022-08-22T10:44:05.411Z,101692.19
2022-08-22T10:46:44.776Z,101686.63
2022-08-22T10:49:28.254Z,101697.25
2022-08-22T10:52:15.679Z,101695.81
2022-08-22T10:54:51.378Z,101696.38
2022-08-22T10:57:41.533Z,101693.69
2022-08-22T11:00:22.542Z,101699.41
2022-08-22T11:03:01.028Z,101695.97
2022-08-22T11:05:39.649Z,101700.25
2022-08-22T11:08:24.413Z,101696.31
2022-08-22T11:11:07.985Z,101694.06
2022-08-22T11:13:45.673Z,101698.19
2022-08-22T11:16:31.965Z,101699.88
2022-08-22T11:19:26.963Z,101698.38
2022-08-22T11:22:12.334Z,101689.47
2022-08-22T11:25:13.934Z,101696.44
2022-08-22T11:27:52.342Z,101695.78
2022-08-22T11:30:27.647Z,101690.53
2022-08-22T11:33:16.201Z,101686.34
2022-08-22T11:35:51.861Z,101684.19
2022-08-22T11:38:32.581Z,101676.72
2022-08-22T11:41:07.462Z,101685.69
2022-08-22T11:43:51.714Z,101680.53
2022-08-22T11:46:31.153Z,101682.75
2022-08-22T11:49:31.589Z,101683.44
2022-08-22T11:52:14.500Z,101686.56
2022-08-22T11:55:07.705Z,101684.75
2022-08-22T11:57:44.773Z,101682.44
2022-08-22T12:00:27.972Z,101674.91
2022-08-22T12:03:15.710Z,101674.28
2022-08-22T12:05:49.858Z,101663.34
2022-08-22T12:08:29.012Z,101679.34
2022-08-22T12:11:08.726Z,101678.50
2022-08-22T12:13:52.113Z,101683.91
2022-08-22T12:16:45.065Z,101671.38
2022-08-22T12:19:24.970Z,101668.53
2022-08-22T12:22:32.062Z,101661.59
2022-08-22T12:25:12.887Z,101655.69
2022-08-22T12:28:01.274Z,101660.72
2022-08-22T12:30:39.665Z,101655.19
2022-08-22T12:33:28.426Z,101663.72
2022-08-22T12:36:18.748Z,101649.34
2022-08-22T12:39:03.402Z,101648.66
2022-08-22T12:42:08.531Z,101635.84
2022-08-22T12:44:54.551Z,101645.13
2022-08-22T12:47:42.189Z,101638.25
2022-08-22T12:50:27.433Z,101634.06
2022-08-22T12:53:20.732Z,101628.50
2022-08-22T12:56:10.331Z,101633.94
2022-08-22T12:59:07.620Z,101620.66
2022-08-22T13:01:45.442Z,101619.41
2022-08-22T13:04:19.322Z,101621.06
2022-08-22T13:07:12.649Z,101611.34
2022-08-22T13:09:43.951Z,101612.47
2022-08-22T13:12:25.010Z,101613.97
2022-08-22T13:15:00.001Z,101605.38
2022-08-22T13:17:33.405Z,101608.34
2022-08-22T13:20:12.382Z,101610.38
2022-08-22T13:22:46.131Z,101609.09
2022-08-22T13:25:27.481Z,101609.41
2022-08-22T13:28:00.225Z,101610.84
2022-08-22T13:30:32.948Z,101604.72
2022-08-22T13:33:11.577Z,101598.44
2022-08-22T13:35:52.324Z,101601.78
2022-08-22T13:38:26.984Z,101588.78
2022-08-22T13:40:59.434Z,101586.63
2022-08-22T13:43:32.549Z,101594.69
2022-08-22T13:46:04.965Z,101591.97
2022-08-22T13:48:50.257Z,101585.81
2022-08-22T13:51:27.566Z,101586.91
2022-08-22T13:54:11.230Z,101583.81
2022-08-22T13:56:50.482Z,101581.06
2022-08-22T13:59:49.489Z,101579.38
2022-08-22T14:02:34.245Z,101575.81
2022-08-22T14:05:11.414Z,101577.72
2022-08-22T14:07:50.052Z,101572.38
2022-08-22T14:10:28.148Z,101580.13
2022-08-22T14:13:32.019Z,101576.16
2022-08-22T14:16:03.786Z,101568.91
2022-08-22T14:18:45.615Z,101570.00
2022-08-22T14:21:40.251Z,101575.56
2022-08-22T14:24:25.752Z,101567.94
2022-08-22T14:27:05.347Z,101567.38
2022-08-22T14:29:44.118Z,101562.72
2022-08-22T14:32:35.303Z,101559.38
2022-08-22T14:35:21.712Z,101556.84
2022-08-22T14:38:01.690Z,101566.19
2022-08-22T14:40:37.850Z,101560.91
2022-08-22T14:43:10.642Z,101555.19
2022-08-22T14:45:44.163Z,101556.28
2022-08-22T14:48:30.948Z,101557.78
2022-08-22T14:51:05.912Z,101557.53
2022-08-22T14:53:42.869Z,101559.72
2022-08-22T14:56:18.408Z,101556.50
2022-08-22T14:58:52.409Z,101543.19
2022-08-22T15:01:25.821Z,101546.19
2022-08-22T15:04:05.684Z,101545.75
2022-08-22T15:06:39.090Z,101548.56
2022-08-22T15:09:31.339Z,101539.41
2022-08-22T15:12:03.793Z,101543.94
2022-08-22T15:14:51.962Z,101533.06
2022-08-22T15:17:40.373Z,101535.84
2022-08-22T15:20:28.534Z,101518.16
2022-08-22T15:23:02.154Z,101526.44
2022-08-22T15:25:37.969Z,101533.66
2022-08-22T15:28:20.361Z,101527.03
2022-08-22T15:31:03.440Z,101520.66
2022-08-22T15:33:35.197Z,101517.34
2022-08-22T15:36:16.649Z,101509.47
2022-08-22T15:38:49.535Z,101512.63
2022-08-22T15:41:42.605Z,101509.59
2022-08-22T15:44:31.278Z,101505.22
2022-08-22T15:47:12.100Z,101502.31
2022-08-22T15:49:59.248Z,101503.28
2022-08-22T15:52:32.497Z,101513.84
2022-08-22T15:55:23.758Z,101501.78
2022-08-22T15:58:12.957Z,101498.75
2022-08-22T16:00:47.107Z,101499.88
2022-08-22T16:03:29.690Z,101492.69
2022-08-22T16:06:04.049Z,101493.56
2022-08-22T16:08:51.806Z,101487.38
2022-08-22T16:11:33.587Z,101485.31
2022-08-22T16:14:25.334Z,101491.09
2022-08-22T16:17:03.797Z,101492.38
2022-08-22T16:19:35.751Z,101483.94
2022-08-22T16:22:13.713Z,101482.75
2022-08-22T16:25:05.634Z,101496.13
2022-08-22T16:27:36.852Z,101487.72
2022-08-22T16:30:17.788Z,101487.13
2022-08-22T16:32:57.236Z,101488.19
2022-08-22T16:35:56.894Z,101483.31
2022-08-22T16:38:37.293Z,101491.66
2022-08-22T16:41:07.370Z,101493.19
2022-08-22T16:43:37.256Z,101487.69
2022-08-22T16:46:36.572Z,101490.44
2022-08-22T16:49:07.000Z,101488.38
2022-08-22T16:51:36.755Z,101486.38
2022-08-22T16:54:10.476Z,101481.13
2022-08-22T16:57:07.735Z,101481.69
2022-08-22T17:00:00.365Z,101484.53
2022-08-22T17:03:05.100Z,101480.00
2022-08-22T17:05:48.393Z,101474.00
2022-08-22T17:08:41.610Z,101477.50
2022-08-22T17:11:24.014Z,101479.38
2022-08-22T17:14:06.333Z,101477.03
2022-08-22T17:16:54.278Z,101475.44
2022-08-22T17:19:40.624Z,101478.84
2022-08-22T17:22:25.973Z,101474.53
2022-08-22T17:25:20.188Z,101477.78
2022-08-22T17:27:56.236Z,101470.91
2022-08-22T17:30:31.832Z,101478.84
2022-08-22T17:33:17.829Z,101489.00
2022-08-22T17:36:03.713Z,101480.53
2022-08-22T17:42:24.354Z,101488.69
2022-08-22T17:45:04.902Z,101491.13
2022-08-22T17:47:42.941Z,101485.09
2022-08-22T17:50:21.590Z,101486.78
2022-08-22T17:52:59.669Z,101486.19
2022-08-22T17:56:00.522Z,101491.78
2022-08-22T17:58:43.672Z,101491.09
2022-08-22T18:01:18.157Z,101494.72
2022-08-22T18:03:55.784Z,101498.44
2022-08-22T18:06:32.571Z,101497.25
2022-08-22T18:09:16.556Z,101494.78
2022-08-22T18:11:52.436Z,101499.94
2022-08-22T18:14:33.069Z,101497.16
2022-08-22T18:17:03.531Z,101493.72
2022-08-22T18:19:49.570Z,101503.66
2022-08-22T18:22:27.475Z,101496.22
2022-08-22T18:25:03.835Z,101500.78
2022-08-22T18:27:39.972Z,101494.88
2022-08-22T18:30:20.796Z,101503.97
2022-08-22T18:32:59.407Z,101509.63
2022-08-22T18:35:37.692Z,101509.13
2022-08-22T18:38:20.484Z,101509.44
2022-08-22T18:41:00.230Z,101498.78
2022-08-22T18:43:39.707Z,101508.94
2022-08-22T18:46:32.611Z,101512.84
2022-08-22T18:49:19.630Z,101513.13
2022-08-22T18:52:15.590Z,101509.84
2022-08-22T18:55:01.910Z,101512.88
2022-08-22T18:57:49.780Z,101518.38
2022-08-22T19:00:23.194Z,101514.97
2022-08-22T19:03:18.341Z,101524.09
2022-08-22T19:06:15.614Z,101522.53
2022-08-22T19:09:13.227Z,101537.00
2022-08-22T19:11:55.526Z,101529.16
2022-08-22T19:14:47.451Z,101535.53
2022-08-22T19:17:39.746Z,101529.50
2022-08-22T19:20:37.541Z,101531.38
2022-08-22T19:23:40.778Z,101531.50
2022-08-22T19:26:37.682Z,101528.91
2022-08-22T19:29:45.712Z,101526.34
2022-08-22T19:32:55.621Z,101542.53
2022-08-22T19:35:40.311Z,101531.97
2022-08-22T19:38:12.805Z,101528.59
2022-08-22T19:41:05.786Z,101525.16
2022-08-22T19:43:42.904Z,101531.59
2022-08-22T19:46:15.240Z,101526.44
2022-08-22T19:48:53.542Z,101522.13
2022-08-22T19:51:36.551Z,101525.75
2022-08-22T19:54:23.363Z,101526.81
2022-08-22T19:57:10.073Z,101528.72
2022-08-22T19:59:50.661Z,101535.13
2022-08-22T20:02:39.480Z,101530.66
2022-08-22T20:05:39.335Z,101527.22
2022-08-22T20:08:31.414Z,101528.25
2022-08-22T20:11:17.202Z,101531.84
2022-08-22T20:13:49.866Z,101524.78
2022-08-22T20:16:23.467Z,101519.50
2022-08-22T20:19:07.234Z,101528.44
2022-08-22T20:21:46.305Z,101533.88
2022-08-22T20:24:24.562Z,101532.16
2022-08-22T20:27:13.378Z,101527.81
2022-08-22T20:29:53.046Z,101518.09
2022-08-22T20:32:26.557Z,101529.75
2022-08-22T20:35:01.350Z,101529.88
2022-08-22T20:38:05.445Z,101530.81
2022-08-22T20:40:57.128Z,101534.53
2022-08-22T20:43:31.960Z,101531.94
2022-08-22T20:46:15.478Z,101528.47
2022-08-22T20:48:48.064Z,101530.28
2022-08-22T20:51:22.460Z,101533.00
2022-08-22T20:53:55.376Z,101526.84
2022-08-22T20:56:46.061Z,101524.25
2022-08-22T20:59:36.176Z,101526.06
2022-08-22T21:02:17.741Z,101530.56
2022-08-22T21:04:53.789Z,101537.63
2022-08-22T21:07:25.953Z,101525.28
2022-08-22T21:10:13.829Z,101522.66
2022-08-22T21:12:46.682Z,101526.25
2022-08-22T21:15:16.382Z,101519.19
2022-08-22T21:17:46.111Z,101521.03
2022-08-22T21:20:22.568Z,101520.25
2022-08-22T21:22:55.603Z,101514.06
2022-08-22T21:25:25.880Z,101508.84
2022-08-22T21:28:00.454Z,101519.53
2022-08-22T21:30:37.908Z,101515.16
2022-08-22T21:33:11.915Z,101512.56
2022-08-22T21:35:59.061Z,101517.94
2022-08-22T21:38:30.079Z,101517.13
2022-08-22T21:41:06.538Z,101521.63
2022-08-22T21:43:42.058Z,101515.53
2022-08-22T21:46:29.836Z,101518.28
2022-08-22T21:49:12.441Z,101519.22
2022-08-22T21:51:44.713Z,101527.28
2022-08-22T21:54:42.985Z,101520.28
2022-08-22T21:57:37.623Z,101530.97
2022-08-22T22:00:48.809Z,101531.97
2022-08-22T22:03:21.053Z,101531.13
2022-08-22T22:05:54.891Z,101524.97
2022-08-22T22:08:24.800Z,101534.78
2022-08-22T22:11:06.157Z,101532.16
2022-08-22T22:13:39.447Z,101530.44
2022-08-22T22:16:15.199Z,101528.69
2022-08-22T22:18:44.941Z,101527.00
2022-08-22T22:21:17.762Z,101534.16
2022-08-22T22:23:47.606Z,101530.66
2022-08-22T22:26:17.831Z,101534.28
2022-08-22T22:28:50.533Z,101529.91
2022-08-22T22:31:23.197Z,101522.84
2022-08-22T22:33:52.943Z,101529.97
2022-08-22T22:36:26.907Z,101531.78
2022-08-22T22:38:57.445Z,101526.44
2022-08-22T22:41:28.215Z,101535.34
2022-08-22T22:43:58.843Z,101538.91
2022-08-22T22:46:32.259Z,101530.97
2022-08-22T22:49:05.823Z,101533.66
2022-08-22T22:51:37.488Z,101532.78
2022-08-22T22:54:11.255Z,101538.13
2022-08-22T22:56:41.195Z,101532.88
2022-08-22T22:59:13.009Z,101536.44
2022-08-22T23:02:06.044Z,101536.47
2022-08-22T23:04:40.642Z,101535.59
2022-08-22T23:07:11.091Z,101538.28
2022-08-22T23:09:44.838Z,101540.91
2022-08-22T23:12:17.005Z,101539.19
2022-08-22T23:14:47.309Z,101530.38
2022-08-22T23:17:20.754Z,101527.75
2022-08-22T23:19:50.841Z,101523.34
2022-08-22T23:22:24.205Z,101526.91
2022-08-22T23:24:54.204Z,101530.44
2022-08-22T23:27:24.275Z,101536.66
2022-08-22T23:29:54.361Z,101537.63
2022-08-22T23:32:27.218Z,101546.47
2022-08-22T23:34:57.072Z,101544.72
2022-08-22T23:37:27.083Z,101541.22
2022-08-22T23:39:56.838Z,101540.34
2022-08-22T23:42:29.301Z,101538.59
2022-08-22T23:44:59.092Z,101535.06
2022-08-22T23:47:32.507Z,101533.31
2022-08-22T23:50:06.222Z,101542.22
2022-08-22T23:52:39.139Z,101537.81
2022-08-22T23:55:10.406Z,101536.97
2022-08-22T23:57:40.191Z,101542.28
